AirNav   ProFlight Series 2 Aviation Headset
 
 655 users online  

6NJ7 Greenwood Lake Seaplane Base
West Milford, New Jersey, USA

GOING TO WEST MILFORD?


FAA INFORMATION EFFECTIVE 18 JUNE 2020

Location

FAA Identifier: 6NJ7
Lat/Long: 41-10-48.3420N 074-20-03.5450W
41-10.805700N 074-20.059083W
41.1800950,-74.3343181
(estimated)
Elevation: 635 ft. / 194 m (estimated)
Variation: 13W (1985)
From city: 3 miles NE of WEST MILFORD, NJ
Time zone: UTC -4 (UTC -5 during Standard Time)
Zip code: 07421

Seaplane Base Operations

Seaplane Base use: Private use. Permission required prior to landing
Activation date: 11/1975
Control tower: no
ARTCC: NEW YORK CENTER
FSS: MILLVILLE FLIGHT SERVICE STATION
Attendance: SAT-SUN DAWN-DUSK
Segmented circle: no

Seaplane Base Communications

WX ASOS at FWN (13 nm W): 118.525 (973-875-0859)
WX ASOS at CDW (18 nm S): 135.5 (973-575-4417)

Nearby radio navigation aids

VOR radial/distance  VOR name  Freq  Var
SAXr065/11.4SPARTA VORTAC115.7011W
HUOr151/18.0HUGUENOT VOR/DME116.1011W
TEBr339/23.4TETERBORO VOR/DME108.4011W
STWr076/26.6STILLWATER VOR/DME109.6011W
LGAr330/31.8LA GUARDIA VOR/DME113.1012W
BWZr055/31.8BROADWAY VOR/DME114.2011W
CMKr272/34.5CARMEL VOR/DME116.6012W
IGNr230/37.1KINGSTON VOR/DME117.6012W
CRIr341/39.5CANARSIE VOR/DME112.3011W

 
NDB name  Hdg/Dist  Freq  Var  ID
STANWYCK224/24.626112WSKU ... -.- ..-
CHATHAM022/26.725413WCAT -.-. .- -

Seaplane Base Services

Runway Information

Runway 3W/21W

Dimensions: 5000 x 500 ft. / 1524 x 152 m
Surface: water
RUNWAY 3W  RUNWAY 21W
Traffic pattern: leftleft

Seaplane Base Ownership and Management from official FAA records

Ownership: Privately-owned
Owner: DAVID G. MACMILLAN
222 LONGPOND RD
HEWITT, NJ 07421
Phone 201-728-8282
Manager: DAVID G. MACMILLAN
41 AIRPORT ROAD
WARWICK, NY 10990
Phone 845-987-1320

Seaplane Base Operational Statistics

Aircraft based on the field: 2
Single engine airplanes: 1
Helicopters: 1
    

Additional Remarks

FOR CD CTC NEW YORK APCH AT 516-683-2448.

Instrument Procedures

There are no published instrument procedures at 6NJ7.

Some nearby airports with instrument procedures:

4N1 - Greenwood Lake Airport (3 nm S)
KFWN - Sussex Airport (13 nm W)
N07 - Lincoln Park Airport (14 nm S)
06N - Randall Airport (15 nm N)
KCDW - Essex County Airport (18 nm S)
 
Loc | Ops | Rwys | IFR | FBO | Links
Com | Nav | Svcs | Stats | Notes
Aerial photo
No photo
 
Sectional chart

 
Airport distance calculator
Flying to Greenwood Lake Seaplane Base? Find the distance to fly.

From to 6NJ7

Sunrise and sunset
Times for 03-Jul-2020
 Local
(UTC-4)
 Zulu
(UTC)
Morning civil twilight04:5708:57
Sunrise05:3109:31
Sunset20:3200:32
Evening civil twilight21:0601:06

Current date and time
Zulu (UTC)  04-Jul-2020 03:44:59
Local (UTC-4)  03-Jul-2020 23:44:59
 
METAR
KFWN 
14nm W 
040341Z AUTO 00000KT 9SM SCT002 BKN014 BKN075 21/19 A2991 RMK AO2 T02060194
KCDW 
18nm S 
040253Z AUTO 00000KT 10SM OVC007 24/22 A2990 RMK AO2 SLP127 60011 T02390217 53008
KMGJ 
20nm N 
SuperAWOS
040318Z AUTO 00000KT 10SM FEW013 BKN018 BKN028 21/20 A2990 RMK AO2 T02060200
K12N 
21nm SW 
040254Z AUTO 00000KT 22/21 A2991 RMK AO1 SLP118 T02170206 51016
KSWF 
22nm NE 
040245Z 00000KT 10SM OVC013 22/22 A2991
KTEB 
23nm SE 
040307Z 07006KT 7SM BKN022 OVC031 23/21 A2987 RMK AO2 T02280211 $
KMMU 
24nm S 
040335Z AUTO 00000KT 10SM OVC008 22/21 A2989 RMK AO2
TAF
KSWF 
22nm NE 
031932Z 0320/0424 VRB05KT P6SM VCTS SCT040CB BKN120 TEMPO 0322/0324 VRB20G34KT 2SM TSRA BKN040CB FM040000 07004KT P6SM BKN015 FM041300 05005KT P6SM SCT025 SCT250 FM041600 06006KT P6SM SCT040 SCT150 AMD NOT SKED
KTEB 
23nm SE 
031928Z 0319/0424 VRB04KT P6SM SCT060 SCT120 FM032200 03005KT P6SM VCTS BKN050CB TEMPO 0322/0401 VRB20G34KT 2SM TSRA BKN035CB FM040200 04004KT P6SM BKN015 FM040700 02004KT P6SM BKN015 FM041600 03008KT P6SM BKN030 FM041800 04006KT P6SM SCT040 FM042100 13007KT P6SM SCT050 SCT150
NOTAMs
Click for the latest NOTAMs
NOTAMs are issued by the DoD/FAA and will open in a separate window not controlled by AirNav.

 

 
 

Would you like to see your business listed on this page?

 If your business provides an interesting product or service to pilots, flight crews, aircraft, or users of the Greenwood Lake Seaplane Base, you should consider listing it here.  To start the listing process, click on the button below
 
Add a business
 

Other Pages about Greenwood Lake Seaplane Base

Update a link
 
Copyright © AirNav, LLC. All rights reserved. Privacy Policy  Contact